sensor_id;sensor_type;location;lat;lon;timestamp;P1;durP1;ratioP1;P2;durP2;ratioP2
76735;SDS011;70098;44.562;0.086;2024-02-26T00:03:29;18.70;;;2.97;;
76735;SDS011;70098;44.562;0.086;2024-02-26T00:18:49;26.43;;;3.67;;
76735;SDS011;70098;44.562;0.086;2024-02-26T00:34:09;10.17;;;2.43;;
76735;SDS011;70098;44.562;0.086;2024-02-26T00:49:28;20.13;;;2.33;;
76735;SDS011;70098;44.562;0.086;2024-02-26T01:04:47;21.67;;;4.13;;
76735;SDS011;70098;44.562;0.086;2024-02-26T01:20:07;24.67;;;4.37;;
76735;SDS011;70098;44.562;0.086;2024-02-26T01:35:28;32.00;;;4.63;;
76735;SDS011;70098;44.562;0.086;2024-02-26T01:50:47;16.37;;;2.27;;
76735;SDS011;70098;44.562;0.086;2024-02-26T02:06:07;21.23;;;2.53;;
76735;SDS011;70098;44.562;0.086;2024-02-26T02:21:25;7.33;;;1.70;;
76735;SDS011;70098;44.562;0.086;2024-02-26T02:36:51;12.40;;;2.00;;
76735;SDS011;70098;44.562;0.086;2024-02-26T02:52:02;24.70;;;3.53;;
76735;SDS011;70098;44.562;0.086;2024-02-26T03:07:20;24.60;;;3.50;;
76735;SDS011;70098;44.562;0.086;2024-02-26T03:22:39;7.70;;;1.93;;
76735;SDS011;70098;44.562;0.086;2024-02-26T03:37:59;12.70;;;2.10;;
76735;SDS011;70098;44.562;0.086;2024-02-26T03:53:17;5.77;;;1.30;;
76735;SDS011;70098;44.562;0.086;2024-02-26T04:08:36;20.33;;;2.43;;
76735;SDS011;70098;44.562;0.086;2024-02-26T04:23:56;28.20;;;3.10;;
76735;SDS011;70098;44.562;0.086;2024-02-26T04:39:14;17.43;;;2.67;;
76735;SDS011;70098;44.562;0.086;2024-02-26T04:54:35;20.30;;;1.73;;
76735;SDS011;70098;44.562;0.086;2024-02-26T05:09:55;18.80;;;2.10;;
76735;SDS011;70098;44.562;0.086;2024-02-26T05:25:17;14.07;;;2.13;;
76735;SDS011;70098;44.562;0.086;2024-02-26T05:40:34;20.73;;;3.03;;
76735;SDS011;70098;44.562;0.086;2024-02-26T05:55:52;24.23;;;3.60;;
76735;SDS011;70098;44.562;0.086;2024-02-26T06:11:12;14.10;;;2.67;;
76735;SDS011;70098;44.562;0.086;2024-02-26T06:26:31;16.43;;;2.63;;
76735;SDS011;70098;44.562;0.086;2024-02-26T06:41:49;18.90;;;3.27;;
76735;SDS011;70098;44.562;0.086;2024-02-26T06:57:08;16.53;;;2.17;;
76735;SDS011;70098;44.562;0.086;2024-02-26T07:12:28;10.07;;;1.67;;
76735;SDS011;70098;44.562;0.086;2024-02-26T07:27:48;11.30;;;2.10;;
76735;SDS011;70098;44.562;0.086;2024-02-26T07:43:09;24.33;;;3.90;;
76735;SDS011;70098;44.562;0.086;2024-02-26T07:58:29;25.20;;;3.57;;
76735;SDS011;70098;44.562;0.086;2024-02-26T08:13:49;27.80;;;3.67;;
76735;SDS011;70098;44.562;0.086;2024-02-26T08:29:09;18.10;;;3.20;;
76735;SDS011;70098;44.562;0.086;2024-02-26T08:44:29;23.73;;;3.07;;
76735;SDS011;70098;44.562;0.086;2024-02-26T08:59:50;14.43;;;3.73;;
76735;SDS011;70098;44.562;0.086;2024-02-26T09:15:09;20.33;;;3.97;;
76735;SDS011;70098;44.562;0.086;2024-02-26T09:30:28;17.17;;;2.93;;
76735;SDS011;70098;44.562;0.086;2024-02-26T09:45:48;14.33;;;1.93;;
76735;SDS011;70098;44.562;0.086;2024-02-26T10:01:07;8.93;;;1.67;;
76735;SDS011;70098;44.562;0.086;2024-02-26T10:16:25;13.13;;;1.60;;
76735;SDS011;70098;44.562;0.086;2024-02-26T10:31:45;9.17;;;1.60;;
76735;SDS011;70098;44.562;0.086;2024-02-26T10:47:05;13.93;;;1.93;;
76735;SDS011;70098;44.562;0.086;2024-02-26T11:02:24;15.33;;;2.90;;
76735;SDS011;70098;44.562;0.086;2024-02-26T11:17:44;12.33;;;1.73;;
76735;SDS011;70098;44.562;0.086;2024-02-26T11:33:04;7.47;;;1.57;;
76735;SDS011;70098;44.562;0.086;2024-02-26T11:48:25;5.60;;;1.20;;
76735;SDS011;70098;44.562;0.086;2024-02-26T12:03:46;3.77;;;1.10;;
76735;SDS011;70098;44.562;0.086;2024-02-26T12:19:07;5.87;;;1.43;;
76735;SDS011;70098;44.562;0.086;2024-02-26T12:34:30;2.20;;;0.90;;
76735;SDS011;70098;44.562;0.086;2024-02-26T12:49:49;3.97;;;1.00;;
76735;SDS011;70098;44.562;0.086;2024-02-26T13:05:08;6.90;;;2.87;;
76735;SDS011;70098;44.562;0.086;2024-02-26T13:20:28;2.47;;;0.73;;
76735;SDS011;70098;44.562;0.086;2024-02-26T13:35:46;0.70;;;0.70;;
76735;SDS011;70098;44.562;0.086;2024-02-26T13:51:06;4.33;;;1.60;;
76735;SDS011;70098;44.562;0.086;2024-02-26T14:06:27;4.17;;;1.63;;
76735;SDS011;70098;44.562;0.086;2024-02-26T14:21:46;5.33;;;1.03;;
76735;SDS011;70098;44.562;0.086;2024-02-26T14:37:05;2.50;;;1.27;;
76735;SDS011;70098;44.562;0.086;2024-02-26T14:52:24;3.50;;;1.10;;
76735;SDS011;70098;44.562;0.086;2024-02-26T15:07:43;0.67;;;0.50;;
76735;SDS011;70098;44.562;0.086;2024-02-26T15:23:03;4.07;;;1.10;;
76735;SDS011;70098;44.562;0.086;2024-02-26T15:38:21;0.63;;;0.60;;
76735;SDS011;70098;44.562;0.086;2024-02-26T15:53:41;3.30;;;1.10;;
76735;SDS011;70098;44.562;0.086;2024-02-26T16:09:02;1.53;;;0.67;;
76735;SDS011;70098;44.562;0.086;2024-02-26T16:24:21;2.10;;;1.10;;
76735;SDS011;70098;44.562;0.086;2024-02-26T16:39:40;2.87;;;1.23;;
76735;SDS011;70098;44.562;0.086;2024-02-26T16:55:00;5.33;;;1.70;;
76735;SDS011;70098;44.562;0.086;2024-02-26T17:10:20;3.13;;;0.87;;
76735;SDS011;70098;44.562;0.086;2024-02-26T17:25:40;2.10;;;0.83;;
76735;SDS011;70098;44.562;0.086;2024-02-26T17:41:00;1.80;;;1.00;;
76735;SDS011;70098;44.562;0.086;2024-02-26T17:56:20;3.77;;;0.93;;
76735;SDS011;70098;44.562;0.086;2024-02-26T18:11:40;0.93;;;0.90;;
76735;SDS011;70098;44.562;0.086;2024-02-26T18:26:59;2.53;;;1.03;;
76735;SDS011;70098;44.562;0.086;2024-02-26T18:42:19;1.47;;;1.37;;
76735;SDS011;70098;44.562;0.086;2024-02-26T18:57:38;0.77;;;0.70;;
76735;SDS011;70098;44.562;0.086;2024-02-26T19:12:57;1.53;;;1.10;;
76735;SDS011;70098;44.562;0.086;2024-02-26T19:28:15;1.03;;;0.93;;
76735;SDS011;70098;44.562;0.086;2024-02-26T19:43:35;1.90;;;1.17;;
76735;SDS011;70098;44.562;0.086;2024-02-26T19:58:54;1.57;;;1.20;;
76735;SDS011;70098;44.562;0.086;2024-02-26T20:14:12;1.10;;;1.00;;
76735;SDS011;70098;44.562;0.086;2024-02-26T20:29:31;0.83;;;0.57;;
76735;SDS011;70098;44.562;0.086;2024-02-26T20:44:50;0.77;;;0.77;;
76735;SDS011;70098;44.562;0.086;2024-02-26T21:00:08;1.37;;;0.93;;
76735;SDS011;70098;44.562;0.086;2024-02-26T21:15:27;2.13;;;1.93;;
76735;SDS011;70098;44.562;0.086;2024-02-26T21:30:46;1.63;;;1.53;;
76735;SDS011;70098;44.562;0.086;2024-02-26T21:46:05;1.40;;;1.07;;
76735;SDS011;70098;44.562;0.086;2024-02-26T22:01:24;2.63;;;2.33;;
76735;SDS011;70098;44.562;0.086;2024-02-26T22:16:43;4.70;;;3.57;;
76735;SDS011;70098;44.562;0.086;2024-02-26T22:32:04;2.27;;;1.83;;
76735;SDS011;70098;44.562;0.086;2024-02-26T22:47:22;5.07;;;2.63;;
76735;SDS011;70098;44.562;0.086;2024-02-26T23:02:41;3.13;;;2.83;;
76735;SDS011;70098;44.562;0.086;2024-02-26T23:18:00;1.83;;;1.60;;
76735;SDS011;70098;44.562;0.086;2024-02-26T23:33:19;2.87;;;2.60;;
76735;SDS011;70098;44.562;0.086;2024-02-26T23:48:40;3.30;;;1.97;;
